createdAt,value
2023-04-10T00:02:09.156Z,4.14
2023-04-10T00:04:32.904Z,4.06
2023-04-10T00:06:56.491Z,4.03
2023-04-10T00:09:20.145Z,4.04
2023-04-10T00:11:45.402Z,3.96
2023-04-10T00:14:09.067Z,3.99
2023-04-10T00:16:32.649Z,3.93
2023-04-10T00:18:56.316Z,3.96
2023-04-10T00:21:19.896Z,3.89
2023-04-10T00:23:43.524Z,3.90
2023-04-10T00:26:07.490Z,3.78
2023-04-10T00:28:32.465Z,3.85
2023-04-10T00:30:56.087Z,3.80
2023-04-10T00:33:19.668Z,3.78
2023-04-10T00:35:43.251Z,3.72
2023-04-10T00:38:07.081Z,3.75
2023-04-10T00:40:30.737Z,3.71
2023-04-10T00:42:54.514Z,3.71
2023-04-10T00:45:19.624Z,3.64
2023-04-10T00:47:43.304Z,3.68
2023-04-10T00:50:08.202Z,3.62
2023-04-10T00:52:32.056Z,3.61
2023-04-10T00:54:55.669Z,3.57
2023-04-10T00:57:19.440Z,3.53
2023-04-10T00:59:43.128Z,3.52
2023-04-10T01:02:08.362Z,3.45
2023-04-10T01:04:33.034Z,3.45
2023-04-10T01:07:01.261Z,3.38
2023-04-10T01:09:43.189Z,3.38
2023-04-10T01:12:19.505Z,3.43
2023-04-10T01:14:52.172Z,3.37
2023-04-10T01:17:24.152Z,3.35
2023-04-10T01:20:04.194Z,3.28
2023-04-10T01:22:30.727Z,3.26
2023-04-10T01:25:28.557Z,3.21
2023-04-10T01:28:08.743Z,3.24
2023-04-10T01:30:36.722Z,3.22
2023-04-10T01:33:02.003Z,3.16
2023-04-10T01:35:27.137Z,3.19
2023-04-10T01:37:54.681Z,3.21
2023-04-10T01:40:20.797Z,3.17
2023-04-10T01:42:50.565Z,3.25
2023-04-10T01:45:20.361Z,3.16
2023-04-10T01:47:48.719Z,3.11
2023-04-10T01:50:13.620Z,3.07
2023-04-10T01:52:37.577Z,3.04
2023-04-10T01:55:11.605Z,3.03
2023-04-10T01:57:42.170Z,3.03
2023-04-10T02:00:07.306Z,3.03
2023-04-10T02:02:38.588Z,3.07
2023-04-10T02:05:04.336Z,3.07
2023-04-10T02:07:38.306Z,2.97
2023-04-10T02:10:10.947Z,2.94
2023-04-10T02:12:42.499Z,2.95
2023-04-10T02:15:08.743Z,2.89
2023-04-10T02:17:34.847Z,2.87
2023-04-10T02:20:00.856Z,2.90
2023-04-10T02:22:27.100Z,2.93
2023-04-10T02:24:51.222Z,2.88
2023-04-10T02:27:14.775Z,2.78
2023-04-10T02:29:38.736Z,2.72
2023-04-10T02:32:03.977Z,2.69
2023-04-10T02:34:27.607Z,2.75
2023-04-10T02:36:51.242Z,2.75
2023-04-10T02:39:17.132Z,2.65
2023-04-10T02:41:47.568Z,2.62
2023-04-10T02:44:11.490Z,2.62
2023-04-10T02:46:35.067Z,2.72
2023-04-10T02:48:58.992Z,2.68
2023-04-10T02:51:22.718Z,2.65
2023-04-10T02:53:46.901Z,2.56
2023-04-10T02:56:21.679Z,2.52
2023-04-10T02:58:46.365Z,2.48
2023-04-10T03:01:10.927Z,2.49
2023-04-10T03:03:42.207Z,2.47
2023-04-10T03:06:08.050Z,2.46
2023-04-10T03:08:32.051Z,2.44
2023-04-10T03:10:55.650Z,2.46
2023-04-10T03:13:20.786Z,2.50
2023-04-10T03:15:44.570Z,2.51
2023-04-10T03:18:09.232Z,2.50
2023-04-10T03:20:33.540Z,2.41
2023-04-10T03:22:57.083Z,2.37
2023-04-10T03:25:23.370Z,2.45
2023-04-10T03:27:48.312Z,2.33
2023-04-10T03:30:13.912Z,2.30
2023-04-10T03:32:39.124Z,2.30
2023-04-10T03:35:03.996Z,2.20
2023-04-10T03:37:28.494Z,2.24
2023-04-10T03:39:52.058Z,2.21
2023-04-10T03:42:15.640Z,2.30
2023-04-10T03:44:39.466Z,2.26
2023-04-10T03:47:06.309Z,2.18
2023-04-10T03:49:29.989Z,2.17
2023-04-10T03:52:00.159Z,2.12
2023-04-10T03:54:25.099Z,2.21
2023-04-10T03:56:48.646Z,2.19
2023-04-10T03:59:12.265Z,2.29
2023-04-10T04:01:37.835Z,2.26
2023-04-10T04:04:07.591Z,2.17
2023-04-10T04:07:00.679Z,2.14
2023-04-10T04:09:31.136Z,2.12
2023-04-10T04:12:24.226Z,2.09
2023-04-10T04:15:14.004Z,2.07
2023-04-10T04:17:51.329Z,2.05
2023-04-10T04:20:37.803Z,2.01
2023-04-10T04:23:17.723Z,2.08
2023-04-10T04:25:59.783Z,2.03
2023-04-10T04:28:47.345Z,2.00
2023-04-10T04:31:11.213Z,1.97
2023-04-10T04:34:00.597Z,2.06
2023-04-10T04:36:45.672Z,2.05
2023-04-10T04:39:09.275Z,1.97
2023-04-10T04:42:01.404Z,2.04
2023-04-10T04:44:43.965Z,2.09
2023-04-10T04:47:39.815Z,2.06
2023-04-10T04:50:22.149Z,2.06
2023-04-10T04:52:47.178Z,2.13
2023-04-10T04:55:29.273Z,2.19
2023-04-10T04:57:57.484Z,2.27
2023-04-10T05:00:32.709Z,2.30
2023-04-10T05:03:03.535Z,2.28
2023-04-10T05:05:34.639Z,2.35
2023-04-10T05:08:22.734Z,2.48
2023-04-10T05:11:06.827Z,2.58
2023-04-10T05:14:09.094Z,2.63
2023-04-10T05:16:41.925Z,2.73
2023-04-10T05:19:19.600Z,2.81
2023-04-10T05:22:05.723Z,2.88
2023-04-10T05:24:50.503Z,2.93
2023-04-10T05:27:26.636Z,3.11
2023-04-10T05:30:22.189Z,3.29
2023-04-10T05:32:51.435Z,3.38
2023-04-10T05:35:36.870Z,3.58
2023-04-10T05:38:18.962Z,3.65
2023-04-10T05:40:54.161Z,3.86
2023-04-10T05:43:34.779Z,3.94
2023-04-10T05:46:08.397Z,3.98
2023-04-10T05:48:44.420Z,4.27
2023-04-10T05:51:33.512Z,4.38
2023-04-10T05:54:35.948Z,4.71
2023-04-10T05:57:17.346Z,4.78
2023-04-10T06:00:01.463Z,5.07
2023-04-10T06:02:37.721Z,5.22
2023-04-10T06:05:04.212Z,5.47
2023-04-10T06:07:30.324Z,5.89
2023-04-10T06:09:54.148Z,6.13
2023-04-10T06:12:20.069Z,6.50
2023-04-10T06:14:44.442Z,7.22
2023-04-10T06:17:08.728Z,8.04
2023-04-10T06:19:32.657Z,8.77
2023-04-10T06:21:56.258Z,8.95
2023-04-10T06:24:19.815Z,9.17
2023-04-10T06:26:43.966Z,9.45
2023-04-10T06:29:09.009Z,9.47
2023-04-10T06:31:35.173Z,9.86
2023-04-10T06:33:59.042Z,10.12
2023-04-10T06:36:23.386Z,10.27
2023-04-10T06:38:55.003Z,10.17
2023-04-10T06:41:19.970Z,10.02
2023-04-10T06:43:43.466Z,10.50
2023-04-10T06:46:08.792Z,10.72
2023-04-10T06:48:32.906Z,11.17
2023-04-10T06:50:56.578Z,11.27
2023-04-10T06:53:20.119Z,11.11
2023-04-10T06:55:43.803Z,11.55
2023-04-10T06:58:07.309Z,11.65
2023-04-10T07:00:31.771Z,11.65
2023-04-10T07:02:56.720Z,12.05
2023-04-10T07:05:20.534Z,12.03
2023-04-10T07:07:44.273Z,12.28
2023-04-10T07:10:09.712Z,12.86
2023-04-10T07:12:33.119Z,12.94
2023-04-10T07:14:56.695Z,12.20
2023-04-10T07:17:20.277Z,12.52
2023-04-10T07:19:45.308Z,12.68
2023-04-10T07:22:08.818Z,12.86
2023-04-10T07:24:32.882Z,13.05
2023-04-10T07:26:57.256Z,12.90
2023-04-10T07:29:21.534Z,13.07
2023-04-10T07:31:45.363Z,13.15
2023-04-10T07:34:09.195Z,13.16
2023-04-10T07:36:34.116Z,13.62
2023-04-10T07:38:57.771Z,13.67
2023-04-10T07:41:22.295Z,13.58
2023-04-10T07:43:46.080Z,13.95
2023-04-10T07:46:09.681Z,13.40
2023-04-10T07:48:33.304Z,13.71
2023-04-10T07:50:56.883Z,13.39
2023-04-10T07:53:21.928Z,14.29
2023-04-10T07:55:48.763Z,14.34
2023-04-10T07:58:12.511Z,14.45
2023-04-10T08:00:36.294Z,14.50
2023-04-10T08:03:00.096Z,14.46
2023-04-10T08:05:23.964Z,14.50
2023-04-10T08:07:47.748Z,14.22
2023-04-10T08:10:13.422Z,13.68
2023-04-10T08:12:38.384Z,14.28
2023-04-10T08:15:02.006Z,14.38
2023-04-10T08:17:25.608Z,14.78
2023-04-10T08:19:49.143Z,14.85
2023-04-10T08:22:12.758Z,14.77
2023-04-10T08:24:36.270Z,15.17
2023-04-10T08:27:02.246Z,15.48
2023-04-10T08:29:25.809Z,15.08
2023-04-10T08:31:49.770Z,14.30
2023-04-10T08:34:13.281Z,15.26
2023-04-10T08:36:36.942Z,15.57
2023-04-10T08:39:00.791Z,15.78
2023-04-10T08:41:24.480Z,14.94
2023-04-10T08:43:49.909Z,15.30
2023-04-10T08:46:14.413Z,15.64
2023-04-10T08:48:44.569Z,14.62
2023-04-10T08:51:15.561Z,15.07
2023-04-10T08:53:45.921Z,15.74
2023-04-10T08:56:13.800Z,15.90
2023-04-10T08:58:37.620Z,16.25
2023-04-10T09:01:03.314Z,16.35
2023-04-10T09:03:28.387Z,15.17
2023-04-10T09:05:51.994Z,15.91
2023-04-10T09:08:16.767Z,16.11
2023-04-10T09:10:40.394Z,16.25
2023-04-10T09:13:04.043Z,14.75
2023-04-10T09:15:27.636Z,15.53
2023-04-10T09:18:00.815Z,16.12
2023-04-10T09:20:26.851Z,16.79
2023-04-10T09:22:50.445Z,16.52
2023-04-10T09:25:32.428Z,16.78
2023-04-10T09:28:03.017Z,16.56
2023-04-10T09:30:36.838Z,17.03
2023-04-10T09:33:03.397Z,16.88
2023-04-10T09:35:38.062Z,17.34
2023-04-10T09:38:01.803Z,17.51
2023-04-10T09:40:27.069Z,16.96
2023-04-10T09:42:50.733Z,16.92
2023-04-10T09:45:14.307Z,17.35
2023-04-10T09:47:38.035Z,17.77
2023-04-10T09:50:03.174Z,17.34
2023-04-10T09:52:29.012Z,17.60
2023-04-10T09:54:52.664Z,17.88
2023-04-10T09:57:19.475Z,17.89
2023-04-10T09:59:46.416Z,17.26
2023-04-10T10:02:10.654Z,17.90
2023-04-10T10:04:36.148Z,18.06
2023-04-10T10:07:02.072Z,17.93
2023-04-10T10:09:27.139Z,17.54
2023-04-10T10:11:53.388Z,17.30
2023-04-10T10:14:20.260Z,17.52
2023-04-10T10:16:48.636Z,18.28
2023-04-10T10:19:20.584Z,16.33
2023-04-10T10:21:46.342Z,17.32
2023-04-10T10:24:13.378Z,17.29
2023-04-10T10:26:39.834Z,18.21
2023-04-10T10:29:06.693Z,18.32
2023-04-10T10:31:33.404Z,18.97
2023-04-10T10:33:57.362Z,18.44
2023-04-10T10:36:21.875Z,16.63
2023-04-10T10:38:55.861Z,16.08
2023-04-10T10:41:31.752Z,17.56
2023-04-10T10:44:03.370Z,18.03
2023-04-10T10:46:43.981Z,17.86
2023-04-10T10:49:07.591Z,18.45
2023-04-10T10:51:48.609Z,19.15
2023-04-10T10:54:31.337Z,18.45
2023-04-10T10:56:56.505Z,18.27
2023-04-10T10:59:20.007Z,18.82
2023-04-10T11:02:18.142Z,18.58
2023-04-10T11:04:46.382Z,19.22
2023-04-10T11:07:09.900Z,18.60
2023-04-10T11:09:51.967Z,18.60
2023-04-10T11:12:17.733Z,18.13
2023-04-10T11:14:42.530Z,18.57
2023-04-10T11:17:06.257Z,17.96
2023-04-10T11:19:29.880Z,18.02
2023-04-10T11:22:10.619Z,18.71
2023-04-10T11:25:00.345Z,18.46
2023-04-10T11:27:55.965Z,18.77
2023-04-10T11:30:41.215Z,18.55
2023-04-10T11:33:06.759Z,18.96
2023-04-10T11:35:32.512Z,19.40
2023-04-10T11:38:15.070Z,19.15
2023-04-10T11:40:54.695Z,19.42
2023-04-10T11:43:19.774Z,18.72
2023-04-10T11:45:43.312Z,19.00
2023-04-10T11:48:07.838Z,19.43
2023-04-10T11:50:36.048Z,18.70
2023-04-10T11:52:59.715Z,18.05
2023-04-10T11:55:39.249Z,18.95
2023-04-10T11:58:03.057Z,19.03
2023-04-10T12:00:27.982Z,18.95
2023-04-10T12:02:54.914Z,19.67
2023-04-10T12:05:18.938Z,19.01
2023-04-10T12:07:44.459Z,18.73
2023-04-10T12:10:10.451Z,18.77
2023-04-10T12:12:37.272Z,19.64
2023-04-10T12:15:00.883Z,19.03
2023-04-10T12:17:25.976Z,18.87
2023-04-10T12:19:50.343Z,19.58
2023-04-10T12:22:14.457Z,19.30
2023-04-10T12:24:46.421Z,19.24
2023-04-10T12:27:10.690Z,17.52
2023-04-10T12:29:34.284Z,18.78
2023-04-10T12:31:58.194Z,18.13
2023-04-10T12:34:23.127Z,18.89
2023-04-10T12:36:54.269Z,19.21
2023-04-10T12:39:25.606Z,18.38
2023-04-10T12:41:49.218Z,18.39
2023-04-10T12:44:14.917Z,18.63
2023-04-10T12:46:39.081Z,18.62
2023-04-10T12:49:12.489Z,18.44
2023-04-10T12:51:49.781Z,18.19
2023-04-10T12:54:13.767Z,18.77
2023-04-10T12:56:44.730Z,18.79
2023-04-10T12:59:08.526Z,18.68
2023-04-10T13:01:32.152Z,18.77
2023-04-10T13:03:55.788Z,18.45
2023-04-10T13:06:19.479Z,17.73
2023-04-10T13:08:44.422Z,17.90
2023-04-10T13:11:08.483Z,17.55
2023-04-10T13:13:32.885Z,18.28
2023-04-10T13:15:56.694Z,18.11
2023-04-10T13:18:20.271Z,17.91
2023-04-10T13:20:43.897Z,18.07
2023-04-10T13:23:07.639Z,18.57
2023-04-10T13:25:35.627Z,17.42
2023-04-10T13:27:59.290Z,17.96
2023-04-10T13:30:22.904Z,18.18
2023-04-10T13:32:46.507Z,18.01
2023-04-10T13:35:10.763Z,16.97
2023-04-10T13:37:34.423Z,17.95
2023-04-10T13:39:57.921Z,17.81
2023-04-10T13:42:22.887Z,18.08
2023-04-10T13:44:46.608Z,18.64
2023-04-10T13:47:10.405Z,18.33
2023-04-10T13:49:34.069Z,18.61
2023-04-10T13:51:58.489Z,18.45
2023-04-10T13:54:22.044Z,18.10
2023-04-10T13:56:46.504Z,18.30
2023-04-10T13:59:11.587Z,17.82
2023-04-10T14:01:35.240Z,18.02
2023-04-10T14:03:58.866Z,18.37
2023-04-10T14:06:22.538Z,18.27
2023-04-10T14:08:46.061Z,18.40
2023-04-10T14:11:09.693Z,18.24
2023-04-10T14:13:33.233Z,18.50
2023-04-10T14:15:58.244Z,18.42
2023-04-10T14:18:21.777Z,18.20
2023-04-10T14:20:45.470Z,18.11
2023-04-10T14:23:09.045Z,18.50
2023-04-10T14:25:32.677Z,18.28
2023-04-10T14:27:56.465Z,18.38
2023-04-10T14:30:20.211Z,18.08
2023-04-10T14:32:45.411Z,18.00
2023-04-10T14:35:10.203Z,18.16
2023-04-10T14:37:33.800Z,18.13
2023-04-10T14:39:57.499Z,18.26
2023-04-10T14:42:20.990Z,17.52
2023-04-10T14:44:44.951Z,16.99
2023-04-10T14:47:08.482Z,17.18
2023-04-10T14:49:33.525Z,17.10
2023-04-10T14:51:57.080Z,17.01
2023-04-10T14:54:23.623Z,17.26
2023-04-10T14:56:47.194Z,17.91
2023-04-10T14:59:11.640Z,17.56
2023-04-10T15:01:35.937Z,17.70
2023-04-10T15:03:59.698Z,17.57
2023-04-10T15:06:25.127Z,16.77
2023-04-10T15:08:48.922Z,16.80
2023-04-10T15:11:12.469Z,17.52
2023-04-10T15:13:36.098Z,17.33
2023-04-10T15:15:59.896Z,17.49
2023-04-10T15:18:25.505Z,17.38
2023-04-10T15:20:49.061Z,17.44
2023-04-10T15:23:14.016Z,17.62
2023-04-10T15:25:37.605Z,17.30
2023-04-10T15:28:02.093Z,17.56
2023-04-10T15:30:25.888Z,17.32
2023-04-10T15:32:49.503Z,16.64
2023-04-10T15:35:13.109Z,16.96
2023-04-10T15:37:37.559Z,16.93
2023-04-10T15:40:04.458Z,17.04
2023-04-10T15:42:28.116Z,16.70
2023-04-10T15:44:51.655Z,16.66
2023-04-10T15:47:15.416Z,17.25
2023-04-10T15:49:39.091Z,17.38
2023-04-10T15:52:02.753Z,16.62
2023-04-10T15:54:26.324Z,16.74
2023-04-10T15:56:51.312Z,16.88
2023-04-10T15:59:14.984Z,17.07
2023-04-10T16:01:38.610Z,16.78
2023-04-10T16:04:02.602Z,16.44
2023-04-10T16:06:26.981Z,17.18
2023-04-10T16:08:53.366Z,16.64
2023-04-10T16:11:16.968Z,16.24
2023-04-10T16:13:44.389Z,16.72
2023-04-10T16:16:09.315Z,16.57
2023-04-10T16:18:32.929Z,16.61
2023-04-10T16:20:56.555Z,16.28
2023-04-10T16:23:20.100Z,16.85
2023-04-10T16:25:43.756Z,16.12
2023-04-10T16:28:08.163Z,16.20
2023-04-10T16:30:33.287Z,16.46
2023-04-10T16:32:56.928Z,16.39
2023-04-10T16:35:22.375Z,16.43
2023-04-10T16:37:46.099Z,15.94
2023-04-10T16:40:12.497Z,16.21
2023-04-10T16:42:36.029Z,16.46
2023-04-10T16:45:02.132Z,16.39
2023-04-10T16:47:27.191Z,16.43
2023-04-10T16:49:50.854Z,16.09
2023-04-10T16:52:14.628Z,16.17
2023-04-10T16:54:38.620Z,16.01
2023-04-10T16:57:02.591Z,15.73
2023-04-10T16:59:26.309Z,15.76
2023-04-10T17:01:49.961Z,15.90
2023-04-10T17:04:16.745Z,15.83
2023-04-10T17:06:40.780Z,15.68
2023-04-10T17:09:04.424Z,15.62
2023-04-10T17:11:28.050Z,15.47
2023-04-10T17:13:51.713Z,15.36
2023-04-10T17:16:15.904Z,15.37
2023-04-10T17:18:39.500Z,15.41
2023-04-10T17:21:04.744Z,15.59
2023-04-10T17:23:28.402Z,15.75
2023-04-10T17:25:52.002Z,15.60
2023-04-10T17:28:16.871Z,15.67
2023-04-10T17:30:40.900Z,15.49
2023-04-10T17:33:04.844Z,15.08
2023-04-10T17:35:28.508Z,15.34
2023-04-10T17:37:53.894Z,15.28
2023-04-10T17:40:17.522Z,15.21
2023-04-10T17:42:41.138Z,15.03
2023-04-10T17:45:05.221Z,15.34
2023-04-10T17:47:28.905Z,14.96
2023-04-10T17:49:52.474Z,14.82
2023-04-10T17:52:16.088Z,15.13
2023-04-10T17:54:41.282Z,14.93
2023-04-10T17:57:06.475Z,14.96
2023-04-10T17:59:32.001Z,15.15
2023-04-10T18:01:55.639Z,14.92
2023-04-10T18:04:19.252Z,14.93
2023-04-10T18:06:42.944Z,14.91
2023-04-10T18:09:06.442Z,14.93
2023-04-10T18:11:31.428Z,14.85
2023-04-10T18:13:54.970Z,14.75
2023-04-10T18:16:18.728Z,14.66
2023-04-10T18:18:42.614Z,14.29
2023-04-10T18:21:08.086Z,14.34
2023-04-10T18:23:33.109Z,14.32
2023-04-10T18:25:57.628Z,14.40
2023-04-10T18:28:22.877Z,14.52
2023-04-10T18:30:46.461Z,14.45
2023-04-10T18:33:11.236Z,14.43
2023-04-10T18:35:35.271Z,14.35
2023-04-10T18:37:58.837Z,14.30
2023-04-10T18:40:24.040Z,14.18
2023-04-10T18:42:47.605Z,14.22
2023-04-10T18:45:14.108Z,14.20
2023-04-10T18:47:37.704Z,14.01
2023-04-10T18:50:01.372Z,13.94
2023-04-10T18:52:24.866Z,13.90
2023-04-10T18:54:48.504Z,14.03
2023-04-10T18:57:12.871Z,14.00
2023-04-10T18:59:38.944Z,13.84
2023-04-10T19:02:04.378Z,13.80
2023-04-10T19:04:28.232Z,13.92
2023-04-10T19:06:51.970Z,13.71
2023-04-10T19:09:15.985Z,13.75
2023-04-10T19:11:39.846Z,13.87
2023-04-10T19:14:03.496Z,13.78
2023-04-10T19:16:27.290Z,13.71
2023-04-10T19:18:54.739Z,13.82
2023-04-10T19:21:18.387Z,13.76
2023-04-10T19:23:42.238Z,13.76
2023-04-10T19:26:06.126Z,13.92
2023-04-10T19:28:30.565Z,13.73
2023-04-10T19:30:54.138Z,13.88
2023-04-10T19:33:18.183Z,13.65
2023-04-10T19:35:43.146Z,13.58
2023-04-10T19:38:06.795Z,13.75
2023-04-10T19:40:31.924Z,13.66
2023-04-10T19:42:55.990Z,13.62
2023-04-10T19:45:22.160Z,13.70
2023-04-10T19:47:45.885Z,13.68
2023-04-10T19:50:10.225Z,13.48
2023-04-10T19:52:35.335Z,13.30
2023-04-10T19:54:58.880Z,13.41
2023-04-10T19:57:22.504Z,13.49
2023-04-10T19:59:46.039Z,13.53
2023-04-10T20:02:10.427Z,13.49
2023-04-10T20:04:34.118Z,13.39
2023-04-10T20:06:57.890Z,13.52
2023-04-10T20:09:23.147Z,13.44
2023-04-10T20:11:46.731Z,13.40
2023-04-10T20:14:10.783Z,13.59
2023-04-10T20:16:34.744Z,13.34
2023-04-10T20:18:58.730Z,13.24
2023-04-10T20:21:22.838Z,13.34
2023-04-10T20:23:46.388Z,13.11
2023-04-10T20:26:12.894Z,13.21
2023-04-10T20:28:36.482Z,13.18
2023-04-10T20:31:00.067Z,13.24
2023-04-10T20:33:24.459Z,13.35
2023-04-10T20:35:48.148Z,13.10
2023-04-10T20:38:11.870Z,13.23
2023-04-10T20:40:35.946Z,13.18
2023-04-10T20:43:01.010Z,12.94
2023-04-10T20:45:24.718Z,12.98
2023-04-10T20:47:48.240Z,13.33
2023-04-10T20:50:13.119Z,12.84
2023-04-10T20:52:36.847Z,13.03
2023-04-10T20:55:00.456Z,13.00
2023-04-10T20:57:24.003Z,12.86
2023-04-10T20:59:48.972Z,12.98
2023-04-10T21:02:13.218Z,13.04
2023-04-10T21:04:36.917Z,12.93
2023-04-10T21:07:00.441Z,12.88
2023-04-10T21:09:24.012Z,12.62
2023-04-10T21:11:47.522Z,12.70
2023-04-10T21:14:11.208Z,13.02
2023-04-10T21:16:41.160Z,12.89
2023-04-10T21:19:04.869Z,12.91
2023-04-10T21:21:29.000Z,12.55
2023-04-10T21:23:52.618Z,12.62
2023-04-10T21:26:16.145Z,12.75
2023-04-10T21:28:39.733Z,12.52
2023-04-10T21:31:03.396Z,12.48
2023-04-10T21:33:28.447Z,12.68
2023-04-10T21:35:52.033Z,12.83
2023-04-10T21:38:15.863Z,12.99
2023-04-10T21:40:39.445Z,12.82
2023-04-10T21:43:03.306Z,12.57
2023-04-10T21:45:26.845Z,12.68
2023-04-10T21:47:50.453Z,12.59
2023-04-10T21:50:15.545Z,12.68
2023-04-10T21:52:39.131Z,12.47
2023-04-10T21:55:03.826Z,12.54
2023-04-10T21:57:28.662Z,12.41
2023-04-10T21:59:52.480Z,12.34
2023-04-10T22:02:16.208Z,12.23
2023-04-10T22:04:48.002Z,12.44
2023-04-10T22:07:19.226Z,12.28
2023-04-10T22:09:42.745Z,12.33
2023-04-10T22:12:07.584Z,12.25
2023-04-10T22:14:31.846Z,12.38
2023-04-10T22:16:56.663Z,12.29
2023-04-10T22:19:20.284Z,12.21
2023-04-10T22:21:43.916Z,12.33
2023-04-10T22:24:09.479Z,12.49
2023-04-10T22:26:33.813Z,12.19
2023-04-10T22:28:59.100Z,12.12
2023-04-10T22:31:22.805Z,12.18
2023-04-10T22:33:46.439Z,12.10
2023-04-10T22:36:11.074Z,12.09
2023-04-10T22:38:34.709Z,12.25
2023-04-10T22:40:59.652Z,12.16
2023-04-10T22:43:23.185Z,12.40
2023-04-10T22:45:46.776Z,12.14
2023-04-10T22:48:10.325Z,12.10
2023-04-10T22:50:33.919Z,12.02
2023-04-10T22:52:57.440Z,12.11
2023-04-10T22:55:21.198Z,11.86
2023-04-10T22:57:49.400Z,11.95
2023-04-10T23:00:14.565Z,11.99
2023-04-10T23:02:38.285Z,12.03
2023-04-10T23:05:02.874Z,11.72
2023-04-10T23:07:27.933Z,11.88
2023-04-10T23:09:51.624Z,11.90
2023-04-10T23:12:15.129Z,11.88
2023-04-10T23:14:40.133Z,11.82
2023-04-10T23:17:03.956Z,11.72
2023-04-10T23:19:27.564Z,11.88
2023-04-10T23:21:53.503Z,11.72
2023-04-10T23:24:17.100Z,11.77
2023-04-10T23:26:40.648Z,11.70
2023-04-10T23:29:04.378Z,11.74
2023-04-10T23:31:29.321Z,11.76
2023-04-10T23:33:52.957Z,11.90
2023-04-10T23:36:16.674Z,11.74
2023-04-10T23:38:40.304Z,11.75
2023-04-10T23:41:04.004Z,11.68
2023-04-10T23:43:27.654Z,11.60
2023-04-10T23:45:51.155Z,11.71
2023-04-10T23:48:16.275Z,11.60
2023-04-10T23:50:39.862Z,11.47
2023-04-10T23:53:04.043Z,11.36
2023-04-10T23:55:27.812Z,11.40
2023-04-10T23:57:51.371Z,11.68
